Time;durP1;ratioP1;P1;durP2;ratioP2;P2;SDS_P1;SDS_P2;PMS_P1;PMS_P2;Temp;Humidity;BMP_temperature;BMP_pressure;BME280_temperature;BME280_humidity;BME280_pressure;Samples;Min_cycle;Max_cycle;Signal;HPM_P1;HPM_P2
2023/10/22 00:01:27;;;;;;;1.60;1.03;;;;;;;;;;6194905;28;20022;-82
2023/10/22 00:04:27;;;;;;;1.80;1.00;;;;;;;;;;6193306;28;20034;-82
2023/10/22 00:07:27;;;;;;;;;;;;;;;;;;6194313;28;20030;-82
2023/10/22 00:10:28;;;;;;;0.80;0.70;;;;;;;;;;5851702;28;10000420;-82
2023/10/22 00:13:28;;;;;;;0.83;0.60;;;;;;;;;;6187656;28;20033;-82
2023/10/22 00:16:28;;;;;;;0.80;0.70;;;;;;;;;;6178733;28;20053;-81
2023/10/22 00:19:28;;;;;;;;;;;;;;;;;;6206390;28;20051;-81
2023/10/22 00:22:29;;;;;;;0.47;0.47;;;;;;;;;;6191294;28;19925;-82
2023/10/22 00:25:29;;;;;;;0.82;0.80;;;;;;;;;;6183257;28;20030;-82
2023/10/22 00:28:29;;;;;;;0.87;0.67;;;;;;;;;;6188793;28;20035;-81
2023/10/22 00:31:30;;;;;;;0.77;0.60;;;;;;;;;;6183783;28;20261;-82
2023/10/22 00:34:31;;;;;;;0.75;0.60;;;;;;;;;;6150343;28;20026;-82
2023/10/22 00:37:31;;;;;;;1.73;0.50;;;;;;;;;;6169899;28;20085;-82
2023/10/22 00:40:31;;;;;;;0.60;0.50;;;;;;;;;;6168029;28;20047;-81
2023/10/22 00:43:31;;;;;;;;;;;;;;;;;;6188197;28;20530;-81
2023/10/22 00:46:32;;;;;;;0.60;0.52;;;;;;;;;;6170702;28;20035;-82
2023/10/22 00:49:33;;;;;;;0.50;0.50;;;;;;;;;;6190472;28;20073;-81
2023/10/22 00:52:33;;;;;;;;;;;;;;;;;;6184988;28;20049;-81
2023/10/22 00:55:36;;;;;;;0.40;0.40;;;;;;;;;;6153119;28;19917;-81
2023/10/22 00:58:36;;;;;;;0.52;0.52;;;;;;;;;;6188302;28;20033;-82
2023/10/22 01:01:36;;;;;;;0.90;0.60;;;;;;;;;;6189287;28;20030;-82
2023/10/22 01:04:37;;;;;;;0.50;0.47;;;;;;;;;;6167087;28;20443;-82
2023/10/22 01:07:37;;;;;;;0.87;0.53;;;;;;;;;;6187318;28;20037;-81
2023/10/22 01:10:37;;;;;;;0.77;0.70;;;;;;;;;;6172962;28;20030;-82
2023/10/22 01:13:38;;;;;;;0.50;0.40;;;;;;;;;;5492508;28;10000771;-82
2023/10/22 01:16:38;;;;;;;0.25;0.25;;;;;;;;;;6184346;28;20030;-82
2023/10/22 01:19:38;;;;;;;0.60;0.40;;;;;;;;;;6196566;28;20109;-81
2023/10/22 01:22:39;;;;;;;0.57;0.30;;;;;;;;;;6177519;28;20087;-82
2023/10/22 01:25:39;;;;;;;0.30;0.30;;;;;;;;;;6194853;28;20027;-82
2023/10/22 01:28:40;;;;;;;0.70;0.30;;;;;;;;;;6187629;28;20045;-82
2023/10/22 01:31:40;;;;;;;0.67;0.30;;;;;;;;;;6184579;28;20301;-82
2023/10/22 01:34:40;;;;;;;0.40;0.33;;;;;;;;;;6188734;28;20024;-82
2023/10/22 01:37:40;;;;;;;0.30;0.30;;;;;;;;;;6176314;28;20472;-81
2023/10/22 01:40:41;;;;;;;1.50;0.20;;;;;;;;;;6189268;28;20089;-81
2023/10/22 01:43:41;;;;;;;0.20;0.20;;;;;;;;;;6187465;28;20747;-82
2023/10/22 01:46:41;;;;;;;0.30;0.20;;;;;;;;;;6188030;28;20030;-81
2023/10/22 01:49:41;;;;;;;0.20;0.20;;;;;;;;;;6198715;28;20025;-82
2023/10/22 01:52:41;;;;;;;0.20;0.20;;;;;;;;;;6180590;28;20547;-81
2023/10/22 01:55:42;;;;;;;0.13;0.13;;;;;;;;;;6190931;28;20455;-81
2023/10/22 01:58:43;;;;;;;0.10;0.10;;;;;;;;;;6163251;28;20039;-81
2023/10/22 02:01:43;;;;;;;0.30;0.25;;;;;;;;;;6171770;28;20479;-81
2023/10/22 02:04:44;;;;;;;0.30;0.30;;;;;;;;;;6172911;28;20095;-81
2023/10/22 02:07:44;;;;;;;0.20;0.20;;;;;;;;;;6206119;28;20026;-78
2023/10/22 02:10:47;;;;;;;0.33;0.20;;;;;;;;;;6187215;28;20054;-78
2023/10/22 02:13:47;;;;;;;0.13;0.13;;;;;;;;;;6175575;28;20121;-77
2023/10/22 02:16:47;;;;;;;0.30;0.30;;;;;;;;;;6172680;28;20041;-77
2023/10/22 02:19:47;;;;;;;0.20;0.20;;;;;;;;;;6170085;28;20031;-77
2023/10/22 02:22:48;;;;;;;0.27;0.20;;;;;;;;;;6179365;28;20022;-77
2023/10/22 02:25:49;;;;;;;0.20;0.20;;;;;;;;;;6178736;28;20022;-77
2023/10/22 02:28:49;;;;;;;;;;;;;;;;;;6195545;28;20026;-77
2023/10/22 02:31:49;;;;;;;0.20;0.17;;;;;;;;;;6181814;28;19916;-77
2023/10/22 02:34:52;;;;;;;0.50;0.30;;;;;;;;;;6168785;28;20472;-78
2023/10/22 02:37:53;;;;;;;0.43;0.20;;;;;;;;;;6171336;28;20029;-78
2023/10/22 02:40:53;;;;;;;;;;;;;;;;;;6179076;28;20030;-77
2023/10/22 02:43:53;;;;;;;0.25;0.25;;;;;;;;;;6171261;28;19930;-77
2023/10/22 02:46:54;;;;;;;0.20;0.20;;;;;;;;;;6177175;28;20054;-77
2023/10/22 02:49:55;;;;;;;0.43;0.20;;;;;;;;;;6188036;28;20102;-78
2023/10/22 02:52:55;;;;;;;0.50;0.23;;;;;;;;;;6182334;28;20406;-78
2023/10/22 02:55:59;;;;;;;0.38;0.20;;;;;;;;;;6178329;28;20476;-78
2023/10/22 02:59:00;;;;;;;0.35;0.20;;;;;;;;;;6182474;28;20054;-78
2023/10/22 03:02:00;;;;;;;0.20;0.20;;;;;;;;;;6183016;28;20030;-77
2023/10/22 03:05:01;;;;;;;0.20;0.20;;;;;;;;;;6188642;28;20045;-78
2023/10/22 03:08:03;;;;;;;0.20;0.20;;;;;;;;;;6175143;28;20055;-77
2023/10/22 03:11:04;;;;;;;0.25;0.25;;;;;;;;;;6183466;28;20038;-78
2023/10/22 03:14:05;;;;;;;;;;;;;;;;;;5841617;28;9999752;-78
2023/10/22 03:17:05;;;;;;;0.10;0.10;;;;;;;;;;6201673;28;19918;-82
2023/10/22 03:20:05;;;;;;;0.20;0.20;;;;;;;;;;6172504;28;20046;-82
2023/10/22 03:23:06;;;;;;;0.30;0.30;;;;;;;;;;6189875;28;20045;-82
2023/10/22 03:26:06;;;;;;;0.10;0.10;;;;;;;;;;6176597;28;20039;-81
2023/10/22 03:29:06;;;;;;;0.20;0.20;;;;;;;;;;6175713;28;20035;-82
2023/10/22 03:32:09;;;;;;;0.10;0.10;;;;;;;;;;6222921;28;20260;-82
2023/10/22 03:35:09;;;;;;;0.20;0.20;;;;;;;;;;6188425;28;20027;-82
2023/10/22 03:38:10;;;;;;;0.13;0.13;;;;;;;;;;6177239;28;20030;-81
2023/10/22 03:41:10;;;;;;;0.10;0.10;;;;;;;;;;6188497;28;20030;-82
2023/10/22 03:44:10;;;;;;;0.70;0.27;;;;;;;;;;6198372;28;20038;-82
2023/10/22 03:47:11;;;;;;;0.13;0.13;;;;;;;;;;6198772;28;20382;-81
2023/10/22 03:50:11;;;;;;;0.10;0.10;;;;;;;;;;6185583;28;20436;-81
2023/10/22 03:53:11;;;;;;;0.30;0.10;;;;;;;;;;6158881;28;20023;-81
2023/10/22 03:56:11;;;;;;;0.20;0.20;;;;;;;;;;6182538;28;20027;-81
2023/10/22 03:59:12;;;;;;;0.23;0.20;;;;;;;;;;6199526;28;20055;-81
2023/10/22 04:02:12;;;;;;;0.20;0.20;;;;;;;;;;6204259;28;20378;-81
2023/10/22 04:05:12;;;;;;;0.20;0.20;;;;;;;;;;6192364;28;20616;-81
2023/10/22 04:08:12;;;;;;;0.20;0.20;;;;;;;;;;6230915;28;20476;-81
2023/10/22 04:11:12;;;;;;;0.20;0.20;;;;;;;;;;6204889;28;20030;-81
2023/10/22 04:14:13;;;;;;;0.20;0.20;;;;;;;;;;6227934;28;20379;-81
2023/10/22 04:17:13;;;;;;;1.13;0.20;;;;;;;;;;6192588;28;20037;-81
2023/10/22 04:20:13;;;;;;;0.47;0.20;;;;;;;;;;6203805;28;20073;-81
2023/10/22 04:23:13;;;;;;;0.23;0.20;;;;;;;;;;6175055;28;20070;-82
2023/10/22 04:26:14;;;;;;;1.40;0.30;;;;;;;;;;6177909;28;20105;-78
2023/10/22 04:29:14;;;;;;;0.10;0.10;;;;;;;;;;6184508;28;20033;-77
2023/10/22 04:32:15;;;;;;;0.23;0.10;;;;;;;;;;6197249;28;20039;-78
2023/10/22 04:35:18;;;;;;;0.30;0.30;;;;;;;;;;6160965;28;20534;-78
2023/10/22 04:38:18;;;;;;;0.15;0.15;;;;;;;;;;6211013;28;20059;-78
2023/10/22 04:41:18;;;;;;;0.10;0.10;;;;;;;;;;6191372;28;20715;-78
2023/10/22 04:44:19;;;;;;;0.10;0.10;;;;;;;;;;6200240;28;20478;-77
2023/10/22 04:47:19;;;;;;;0.10;0.10;;;;;;;;;;6183757;28;20391;-77
2023/10/22 04:50:20;;;;;;;0.10;0.10;;;;;;;;;;6198528;28;20022;-77
2023/10/22 04:53:20;;;;;;;0.10;0.10;;;;;;;;;;6188512;28;20040;-78
2023/10/22 04:56:20;;;;;;;0.33;0.13;;;;;;;;;;6182279;28;20019;-78
2023/10/22 04:59:20;;;;;;;0.17;0.13;;;;;;;;;;6180210;28;20030;-78
2023/10/22 05:02:21;;;;;;;0.10;0.10;;;;;;;;;;6172191;28;20120;-78
2023/10/22 05:05:21;;;;;;;0.10;0.10;;;;;;;;;;6177172;28;20046;-78
2023/10/22 05:08:23;;;;;;;0.10;0.10;;;;;;;;;;6190454;28;20026;-78
2023/10/22 05:11:26;;;;;;;0.10;0.10;;;;;;;;;;6202484;28;20022;-78
2023/10/22 05:14:26;;;;;;;0.15;0.10;;;;;;;;;;6194835;28;20093;-78
2023/10/22 05:17:26;;;;;;;1.07;0.20;;;;;;;;;;6189516;28;20026;-78
2023/10/22 05:20:30;;;;;;;0.10;0.10;;;;;;;;;;6183879;28;20037;-79
2023/10/22 05:23:30;;;;;;;0.25;0.20;;;;;;;;;;6175875;28;20069;-78
2023/10/22 05:26:31;;;;;;;0.25;0.10;;;;;;;;;;6184747;28;20022;-78
2023/10/22 05:29:31;;;;;;;0.33;0.20;;;;;;;;;;6190414;28;20043;-78
2023/10/22 05:32:32;;;;;;;0.10;0.10;;;;;;;;;;6196185;28;20031;-78
2023/10/22 05:35:34;;;;;;;0.13;0.13;;;;;;;;;;6179253;28;20030;-78
2023/10/22 05:38:34;;;;;;;0.10;0.10;;;;;;;;;;6183484;28;20064;-79
2023/10/22 05:41:34;;;;;;;0.10;0.10;;;;;;;;;;6170172;28;20438;-78
2023/10/22 05:44:37;;;;;;;0.10;0.10;;;;;;;;;;6213826;28;20048;-78
2023/10/22 05:47:38;;;;;;;0.10;0.10;;;;;;;;;;6183314;28;20424;-81
2023/10/22 05:50:39;;;;;;;0.27;0.27;;;;;;;;;;6177806;28;20034;-80
2023/10/22 05:53:39;;;;;;;0.25;0.20;;;;;;;;;;6193738;28;20505;-79
2023/10/22 05:56:39;;;;;;;0.17;0.10;;;;;;;;;;6191504;28;20030;-80
2023/10/22 05:59:39;;;;;;;0.10;0.10;;;;;;;;;;6194676;28;20033;-80
2023/10/22 06:02:40;;;;;;;0.10;0.10;;;;;;;;;;6214900;28;20058;-80
2023/10/22 06:05:40;;;;;;;0.10;0.10;;;;;;;;;;6189577;28;20054;-81
2023/10/22 06:08:42;;;;;;;0.23;0.10;;;;;;;;;;6200435;28;20027;-80
2023/10/22 06:11:42;;;;;;;0.20;0.10;;;;;;;;;;6174077;28;20057;-79
2023/10/22 06:14:42;;;;;;;0.10;0.10;;;;;;;;;;6183288;28;20475;-78
2023/10/22 06:17:44;;;;;;;0.77;0.10;;;;;;;;;;6178693;28;20018;-80
2023/10/22 06:20:44;;;;;;;0.10;0.10;;;;;;;;;;6193538;28;20067;-80
2023/10/22 06:23:44;;;;;;;0.07;0.07;;;;;;;;;;6187174;28;20046;-79
2023/10/22 06:26:45;;;;;;;0.20;0.20;;;;;;;;;;6174100;28;20031;-80
2023/10/22 06:29:48;;;;;;;0.10;0.10;;;;;;;;;;6189584;28;20454;-79
2023/10/22 06:32:50;;;;;;;0.10;0.10;;;;;;;;;;6210905;28;20040;-80
2023/10/22 06:35:50;;;;;;;0.40;0.20;;;;;;;;;;6175817;28;20027;-79
2023/10/22 06:38:50;;;;;;;1.60;0.20;;;;;;;;;;6169866;28;20051;-79
2023/10/22 06:41:51;;;;;;;0.20;0.20;;;;;;;;;;6198658;28;20014;-79
2023/10/22 06:44:51;;;;;;;0.17;0.17;;;;;;;;;;6192162;28;20490;-79
2023/10/22 06:47:51;;;;;;;0.13;0.13;;;;;;;;;;6187983;28;20025;-78
2023/10/22 06:50:51;;;;;;;0.10;0.10;;;;;;;;;;6196165;28;20014;-78
2023/10/22 06:53:52;;;;;;;0.20;0.20;;;;;;;;;;6197802;28;20433;-77
2023/10/22 06:56:52;;;;;;;0.10;0.10;;;;;;;;;;6174305;28;20030;-78
2023/10/22 06:59:52;;;;;;;0.10;0.10;;;;;;;;;;6179132;28;20030;-78
2023/10/22 07:02:53;;;;;;;0.20;0.10;;;;;;;;;;6177033;28;20042;-78
2023/10/22 07:05:53;;;;;;;0.10;0.10;;;;;;;;;;6203552;28;20025;-78
2023/10/22 07:08:53;;;;;;;0.20;0.20;;;;;;;;;;6219907;28;20477;-78
2023/10/22 07:11:53;;;;;;;0.10;0.10;;;;;;;;;;6197727;28;20483;-78
2023/10/22 07:14:55;;;;;;;0.20;0.20;;;;;;;;;;6182460;28;20415;-78
2023/10/22 07:17:55;;;;;;;0.25;0.22;;;;;;;;;;6205884;28;20440;-79
2023/10/22 07:20:55;;;;;;;0.20;0.20;;;;;;;;;;6188556;28;20030;-78
2023/10/22 07:23:57;;;;;;;0.20;0.17;;;;;;;;;;6189105;28;20076;-79
2023/10/22 07:26:58;;;;;;;0.20;0.20;;;;;;;;;;6188646;28;20033;-83
2023/10/22 07:30:01;;;;;;;0.10;0.10;;;;;;;;;;6204484;28;20073;-83
2023/10/22 07:33:01;;;;;;;0.30;0.22;;;;;;;;;;6169408;28;20700;-83
2023/10/22 07:36:28;;;;;;;1.27;0.30;;;;;;;;;;6187878;28;20022;-83
2023/10/22 07:39:28;;;;;;;0.20;0.20;;;;;;;;;;6171082;28;20058;-83
2023/10/22 07:42:30;;;;;;;0.37;0.20;;;;;;;;;;6181614;28;20027;-83
2023/10/22 07:45:31;;;;;;;0.20;0.20;;;;;;;;;;6193398;28;20109;-83
2023/10/22 07:48:32;;;;;;;0.10;0.10;;;;;;;;;;6196697;28;20025;-83
2023/10/22 07:51:32;;;;;;;0.40;0.20;;;;;;;;;;5840307;27;10000336;-83
2023/10/22 07:54:33;;;;;;;0.47;0.23;;;;;;;;;;6185020;28;20042;-84
2023/10/22 07:57:51;;;;;;;0.13;0.13;;;;;;;;;;5839219;28;10000370;-77
2023/10/22 08:01:03;;;;;;;0.30;0.10;;;;;;;;;;6196085;28;20079;-77
2023/10/22 08:04:09;;;;;;;0.10;0.10;;;;;;;;;;6195112;28;20041;-78
2023/10/22 08:07:09;;;;;;;0.30;0.13;;;;;;;;;;6203728;28;20137;-77
2023/10/22 08:10:09;;;;;;;0.13;0.10;;;;;;;;;;6174637;28;20023;-77
2023/10/22 08:13:10;;;;;;;0.55;0.10;;;;;;;;;;6172975;28;20045;-77
2023/10/22 08:16:12;;;;;;;0.10;0.10;;;;;;;;;;6161127;28;20022;-77
2023/10/22 08:19:12;;;;;;;0.10;0.10;;;;;;;;;;6194552;28;20539;-77
2023/10/22 08:22:12;;;;;;;0.10;0.10;;;;;;;;;;6178742;28;20056;-77
2023/10/22 08:25:25;;;;;;;;;;;;;;;;;;;;;
2023/10/22 08:28:35;;;;;;;0.28;0.10;;;;;;;;;;6190057;28;20381;-77
2023/10/22 08:31:38;;;;;;;0.15;0.10;;;;;;;;;;6180821;28;20026;-77
2023/10/22 08:34:38;;;;;;;0.10;0.10;;;;;;;;;;6180048;28;20035;-77
2023/10/22 08:37:38;;;;;;;0.20;0.20;;;;;;;;;;6178323;28;20026;-79
2023/10/22 08:40:42;;;;;;;0.25;0.10;;;;;;;;;;6180716;28;20058;-78
2023/10/22 08:43:44;;;;;;;0.22;0.20;;;;;;;;;;6181615;28;20109;-78
2023/10/22 08:46:44;;;;;;;0.10;0.10;;;;;;;;;;6194446;28;20053;-78
2023/10/22 08:49:49;;;;;;;0.10;0.10;;;;;;;;;;6179991;28;20035;-78
2023/10/22 08:52:49;;;;;;;0.10;0.10;;;;;;;;;;6181420;28;20039;-79
2023/10/22 08:55:49;;;;;;;0.70;0.10;;;;;;;;;;6182274;28;20038;-79
2023/10/22 08:58:50;;;;;;;0.13;0.10;;;;;;;;;;6180209;28;20250;-79
2023/10/22 09:01:50;;;;;;;0.37;0.30;;;;;;;;;;6173232;28;20023;-79
2023/10/22 09:05:02;;;;;;;0.15;0.10;;;;;;;;;;6180251;28;20027;-78
2023/10/22 09:08:04;;;;;;;0.20;0.20;;;;;;;;;;6170550;28;20278;-79
2023/10/22 09:11:16;;;;;;;0.25;0.20;;;;;;;;;;6162572;28;20046;-79
2023/10/22 09:14:20;;;;;;;0.20;0.20;;;;;;;;;;6179352;28;20129;-79
2023/10/22 09:17:20;;;;;;;0.10;0.10;;;;;;;;;;6191159;28;20045;-79
2023/10/22 09:20:21;;;;;;;0.10;0.10;;;;;;;;;;6176023;28;20026;-79
2023/10/22 09:23:21;;;;;;;;;;;;;;;;;;6177545;28;20025;-79
2023/10/22 09:26:24;;;;;;;0.10;0.10;;;;;;;;;;6191554;28;19909;-79
2023/10/22 09:29:24;;;;;;;0.10;0.10;;;;;;;;;;6182850;28;20114;-79
2023/10/22 09:32:25;;;;;;;0.20;0.20;;;;;;;;;;6184231;28;20029;-79
2023/10/22 09:35:25;;;;;;;;;;;;;;;;;;6177757;28;20030;-80
2023/10/22 09:38:46;;;;;;;0.20;0.10;;;;;;;;;;6179277;28;19916;-79
2023/10/22 09:42:05;;;;;;;0.10;0.10;;;;;;;;;;6185203;28;20109;-79
2023/10/22 09:45:06;;;;;;;0.20;0.20;;;;;;;;;;5849883;27;9999668;-80
2023/10/22 09:48:06;;;;;;;0.10;0.10;;;;;;;;;;6186488;28;20767;-79
2023/10/22 09:51:11;;;;;;;0.88;0.10;;;;;;;;;;6182823;28;20749;-79
2023/10/22 09:54:16;;;;;;;0.43;0.20;;;;;;;;;;6175804;28;20126;-79
2023/10/22 09:57:16;;;;;;;0.10;0.10;;;;;;;;;;6182326;28;20050;-79
2023/10/22 10:00:17;;;;;;;0.10;0.10;;;;;;;;;;6175513;28;20022;-79
2023/10/22 10:03:19;;;;;;;0.20;0.10;;;;;;;;;;6193206;28;20044;-79
2023/10/22 10:06:20;;;;;;;0.25;0.20;;;;;;;;;;6176065;28;20076;-79
2023/10/22 10:09:21;;;;;;;0.75;0.20;;;;;;;;;;6176046;28;20018;-79
2023/10/22 10:12:24;;;;;;;0.20;0.20;;;;;;;;;;6191764;28;20026;-79
2023/10/22 10:15:35;;;;;;;0.40;0.40;;;;;;;;;;6177905;28;20029;-78
2023/10/22 10:18:53;;;;;;;0.88;0.50;;;;;;;;;;6175157;28;20022;-79
2023/10/22 10:21:54;;;;;;;0.30;0.30;;;;;;;;;;6172275;28;20041;-79
2023/10/22 10:25:14;;;;;;;0.40;0.40;;;;;;;;;;6164757;28;20043;-80
2023/10/22 10:28:16;;;;;;;0.30;0.30;;;;;;;;;;6179449;28;20015;-79
2023/10/22 10:31:30;;;;;;;1.25;1.15;;;;;;;;;;6239473;28;20077;-79
2023/10/22 10:34:35;;;;;;;1.10;0.98;;;;;;;;;;6239997;28;20024;-80
2023/10/22 10:37:38;;;;;;;0.40;0.40;;;;;;;;;;6167633;28;20054;-80
2023/10/22 10:40:51;;;;;;;0.20;0.20;;;;;;;;;;6178441;28;20166;-79
2023/10/22 10:44:08;;;;;;;0.20;0.20;;;;;;;;;;6178835;28;20136;-80
2023/10/22 10:47:32;;;;;;;0.20;0.20;;;;;;;;;;6168094;28;20386;-80
2023/10/22 10:50:33;;;;;;;0.25;0.20;;;;;;;;;;6183705;28;20041;-79
2023/10/22 10:53:53;;;;;;;0.17;0.17;;;;;;;;;;6174755;28;20498;-80
2023/10/22 10:56:58;;;;;;;0.20;0.20;;;;;;;;;;6169785;28;20035;-80
2023/10/22 11:00:03;;;;;;;0.30;0.20;;;;;;;;;;6187622;28;20030;-80
2023/10/22 11:03:06;;;;;;;1.05;0.15;;;;;;;;;;6176446;28;20036;-79
2023/10/22 11:06:10;;;;;;;0.20;0.17;;;;;;;;;;6177523;28;20050;-79
2023/10/22 11:09:11;;;;;;;0.25;0.20;;;;;;;;;;6174417;28;20129;-79
2023/10/22 11:12:11;;;;;;;0.55;0.47;;;;;;;;;;6170980;28;20040;-80
2023/10/22 11:15:12;;;;;;;;;;;;;;;;;;6171018;28;20043;-80
2023/10/22 11:18:12;;;;;;;0.50;0.40;;;;;;;;;;6178860;28;20437;-80
2023/10/22 11:21:12;;;;;;;;;;;;;;;;;;6180889;28;20026;-79
2023/10/22 11:24:12;;;;;;;0.20;0.20;;;;;;;;;;6262324;28;19968;-80
2023/10/22 11:27:14;;;;;;;0.20;0.20;;;;;;;;;;5824061;28;9999725;-80
2023/10/22 11:30:33;;;;;;;0.10;0.10;;;;;;;;;;6194596;28;20034;-79
2023/10/22 11:33:34;;;;;;;0.82;0.20;;;;;;;;;;6182105;28;20039;-83
2023/10/22 11:36:34;;;;;;;0.25;0.20;;;;;;;;;;6179435;28;20052;-82
2023/10/22 11:39:35;;;;;;;0.10;0.10;;;;;;;;;;6208776;28;20107;-82
2023/10/22 11:42:35;;;;;;;;;;;;;;;;;;6192114;28;20619;-83
2023/10/22 11:45:36;;;;;;;0.65;0.20;;;;;;;;;;6169839;28;19909;-83
2023/10/22 11:48:37;;;;;;;;;;;;;;;;;;6185401;28;20034;-85
2023/10/22 11:51:44;;;;;;;0.82;0.20;;;;;;;;;;6188697;28;19909;-82
2023/10/22 11:54:44;;;;;;;0.08;0.08;;;;;;;;;;6189672;28;20035;-83
2023/10/22 11:57:52;;;;;;;;;;;;;;;;;;6166117;28;20069;-82
2023/10/22 12:00:55;;;;;;;0.10;0.10;;;;;;;;;;6191846;28;20314;-83
2023/10/22 12:03:56;;;;;;;0.30;0.17;;;;;;;;;;6186207;28;20136;-83
2023/10/22 12:06:56;;;;;;;;;;;;;;;;;;6181376;28;20499;-83
2023/10/22 12:09:57;;;;;;;0.30;0.10;;;;;;;;;;6173409;28;20377;-83
2023/10/22 12:12:58;;;;;;;0.20;0.17;;;;;;;;;;6185300;28;20046;-83
2023/10/22 12:15:58;;;;;;;;;;;;;;;;;;6190326;28;20058;-83
2023/10/22 12:18:58;;;;;;;0.10;0.10;;;;;;;;;;6195402;28;19913;-85
2023/10/22 12:21:59;;;;;;;;;;;;;;;;;;6179247;28;20517;-82
2023/10/22 12:25:01;;;;;;;0.10;0.10;;;;;;;;;;6190817;28;19943;-84
2023/10/22 12:28:01;;;;;;;0.15;0.10;;;;;;;;;;6197985;28;20019;-83
2023/10/22 12:31:01;;;;;;;;;;;;;;;;;;6196997;28;20026;-82
2023/10/22 12:34:03;;;;;;;0.10;0.10;;;;;;;;;;6200963;28;19922;-83
2023/10/22 12:37:03;;;;;;;0.10;0.10;;;;;;;;;;6172830;28;20047;-88
2023/10/22 12:43:22;;;;;;;0.10;0.10;;;;;;;;;;6166337;28;19910;-87
2023/10/22 12:46:22;;;;;;;;;;;;;;;;;;6172300;28;20038;-88
2023/10/22 12:49:23;;;;;;;0.20;0.20;;;;;;;;;;6169914;28;19942;-88
2023/10/22 12:52:23;;;;;;;;;;;;;;;;;;6161609;28;20271;-88
2023/10/22 12:55:24;;;;;;;0.20;0.20;;;;;;;;;;6148457;29;19910;-88
2023/10/22 12:58:25;;;;;;;1.58;0.25;;;;;;;;;;6168383;28;20031;-87
2023/10/22 13:01:25;;;;;;;0.45;0.13;;;;;;;;;;6173717;28;20125;-87
2023/10/22 13:04:25;;;;;;;;;;;;;;;;;;6166646;28;20027;-87
2023/10/22 13:07:25;;;;;;;0.23;0.20;;;;;;;;;;6155001;28;19910;-88
2023/10/22 13:10:26;;;;;;;;;;;;;;;;;;6156906;28;20053;-87
2023/10/22 13:13:27;;;;;;;0.25;0.25;;;;;;;;;;6168406;28;19929;-87
2023/10/22 13:16:27;;;;;;;;;;;;;;;;;;6169485;28;20044;-87
2023/10/22 13:19:27;;;;;;;0.10;0.10;;;;;;;;;;6181874;28;19928;-87
2023/10/22 13:22:28;;;;;;;;;;;;;;;;;;6196398;28;20023;-87
2023/10/22 13:25:28;;;;;;;0.17;0.10;;;;;;;;;;6166098;28;19910;-87
2023/10/22 13:28:28;;;;;;;0.40;0.20;;;;;;;;;;5837041;28;10000270;-87
2023/10/22 13:31:28;;;;;;;;;;;;;;;;;;6171158;28;20027;-87
2023/10/22 13:34:29;;;;;;;0.20;0.15;;;;;;;;;;6160728;28;19919;-87
2023/10/22 13:37:29;;;;;;;;;;;;;;;;;;6174115;28;20026;-87
2023/10/22 13:40:30;;;;;;;0.10;0.10;;;;;;;;;;6189869;28;19963;-87
2023/10/22 13:43:30;;;;;;;;;;;;;;;;;;6194091;28;20022;-87
2023/10/22 13:46:30;;;;;;;0.47;0.20;;;;;;;;;;6195696;28;19920;-86
2023/10/22 13:49:30;;;;;;;;;;;;;;;;;;6179853;28;20030;-87
2023/10/22 13:52:31;;;;;;;0.20;0.13;;;;;;;;;;6177219;28;20059;-87
2023/10/22 13:55:31;;;;;;;0.17;0.17;;;;;;;;;;6180149;28;20034;-87
2023/10/22 13:58:31;;;;;;;;;;;;;;;;;;6187046;28;20265;-87
2023/10/22 14:01:31;;;;;;;0.20;0.20;;;;;;;;;;6199211;28;19913;-86
2023/10/22 14:04:31;;;;;;;;;;;;;;;;;;6201566;28;20107;-86
2023/10/22 14:07:32;;;;;;;0.25;0.20;;;;;;;;;;6173302;28;20361;-88
2023/10/22 14:10:34;;;;;;;;;;;;;;;;;;6176863;28;20395;-87
2023/10/22 14:13:34;;;;;;;;;;;;;;;;;;6186204;28;19922;-87
2023/10/22 14:16:34;;;;;;;1.17;0.10;;;;;;;;;;6167868;28;20413;-85
2023/10/22 14:19:35;;;;;;;;;;;;;;;;;;6222969;28;20031;-87
2023/10/22 14:22:35;;;;;;;2.27;0.20;;;;;;;;;;6156515;28;20406;-81
2023/10/22 14:25:35;;;;;;;;;;;;;;;;;;6173639;28;20027;-82
2023/10/22 14:28:35;;;;;;;0.25;0.15;;;;;;;;;;6182073;28;19910;-80
2023/10/22 14:31:36;;;;;;;;;;;;;;;;;;6182586;28;20117;-82
2023/10/22 14:34:36;;;;;;;0.57;0.20;;;;;;;;;;6173897;28;20000;-81
2023/10/22 14:37:37;;;;;;;;;;;;;;;;;;6178455;28;20022;-82
2023/10/22 14:40:41;;;;;;;0.20;0.20;;;;;;;;;;6177064;28;19961;-80
2023/10/22 14:43:41;;;;;;;0.30;0.20;;;;;;;;;;6161309;28;20397;-81
2023/10/22 14:46:41;;;;;;;;;;;;;;;;;;6179123;28;20023;-81
2023/10/22 14:49:42;;;;;;;0.38;0.10;;;;;;;;;;6176503;28;20378;-81
2023/10/22 14:52:42;;;;;;;;;;;;;;;;;;6182015;28;20082;-81
2023/10/22 14:55:52;;;;;;;0.27;0.20;;;;;;;;;;6175182;28;19913;-80
2023/10/22 14:58:52;;;;;;;0.68;0.20;;;;;;;;;;6171149;28;20265;-81
2023/10/22 15:01:52;;;;;;;;;;;;;;;;;;6180970;28;20033;-81
2023/10/22 15:04:53;;;;;;;2.33;1.67;;;;;;;;;;6181908;28;20270;-81
2023/10/22 15:07:53;;;;;;;;;;;;;;;;;;6189202;28;20044;-81
2023/10/22 15:10:53;;;;;;;1.10;0.88;;;;;;;;;;6174047;28;19914;-82
2023/10/22 15:13:53;;;;;;;;;;;;;;;;;;6185630;28;20042;-82
2023/10/22 15:16:54;;;;;;;0.33;0.30;;;;;;;;;;6188468;28;19963;-82
2023/10/22 15:19:54;;;;;;;;;;;;;;;;;;6159414;28;20128;-83
2023/10/22 15:22:54;;;;;;;0.35;0.30;;;;;;;;;;6183732;28;19971;-82
2023/10/22 15:25:54;;;;;;;;;;;;;;;;;;6186244;28;20025;-82
2023/10/22 15:28:55;;;;;;;0.52;0.20;;;;;;;;;;6185511;28;19913;-82
2023/10/22 15:31:55;;;;;;;0.60;0.47;;;;;;;;;;6185160;28;20022;-81
2023/10/22 15:34:55;;;;;;;;;;;;;;;;;;6186777;28;20030;-82
2023/10/22 15:37:56;;;;;;;0.28;0.28;;;;;;;;;;6188196;28;19921;-82
2023/10/22 15:40:59;;;;;;;1.00;0.50;;;;;;;;;;6182916;28;20046;-82
2023/10/22 15:43:59;;;;;;;0.40;0.40;;;;;;;;;;6181091;28;20522;-82
2023/10/22 15:47:00;;;;;;;1.07;0.90;;;;;;;;;;6186833;28;20039;-82
2023/10/22 15:50:00;;;;;;;;;;;;;;;;;;6178884;28;20065;-82
2023/10/22 15:53:01;;;;;;;1.07;0.37;;;;;;;;;;6180855;28;19918;-82
2023/10/22 15:56:01;;;;;;;;;;;;;;;;;;6172186;28;20058;-82
2023/10/22 15:59:02;;;;;;;1.85;1.35;;;;;;;;;;6169126;28;19910;-82
2023/10/22 16:02:02;;;;;;;4.28;3.35;;;;;;;;;;6176441;28;20015;-81
2023/10/22 16:05:05;;;;;;;2.67;1.70;;;;;;;;;;6190172;28;20398;-82
2023/10/22 16:08:06;;;;;;;2.80;1.20;;;;;;;;;;6187301;28;20266;-82
2023/10/22 16:11:08;;;;;;;0.90;0.90;;;;;;;;;;6178843;28;20031;-82
2023/10/22 16:14:08;;;;;;;0.93;0.77;;;;;;;;;;6178853;28;20058;-81
2023/10/22 16:17:08;;;;;;;0.87;0.70;;;;;;;;;;6179251;28;20403;-82
2023/10/22 16:20:09;;;;;;;0.63;0.63;;;;;;;;;;6183090;28;20033;-81
2023/10/22 16:23:10;;;;;;;;;;;;;;;;;;6186533;28;20073;-82
2023/10/22 16:26:10;;;;;;;2.00;0.40;;;;;;;;;;6177194;28;19910;-81
2023/10/22 16:29:10;;;;;;;0.43;0.33;;;;;;;;;;6178080;28;20400;-81
2023/10/22 16:32:10;;;;;;;;;;;;;;;;;;6173602;28;20387;-82
2023/10/22 16:35:12;;;;;;;2.80;2.17;;;;;;;;;;6172774;28;20344;-82
2023/10/22 16:38:12;;;;;;;3.53;2.13;;;;;;;;;;6178970;28;20022;-82
2023/10/22 16:41:12;;;;;;;3.10;2.57;;;;;;;;;;6181898;28;20534;-81
2023/10/22 16:44:14;;;;;;;1.55;1.40;;;;;;;;;;6194107;28;20046;-81
2023/10/22 16:47:14;;;;;;;1.20;1.00;;;;;;;;;;6180738;28;20034;-81
2023/10/22 16:50:14;;;;;;;;;;;;;;;;;;6173551;28;20053;-84
2023/10/22 16:53:14;;;;;;;0.50;0.40;;;;;;;;;;6174272;28;19921;-83
2023/10/22 16:56:16;;;;;;;0.60;0.60;;;;;;;;;;6179702;28;20083;-82
2023/10/22 16:59:17;;;;;;;0.40;0.40;;;;;;;;;;6190662;28;20488;-82
2023/10/22 17:02:17;;;;;;;1.33;0.50;;;;;;;;;;6200732;28;20262;-82
2023/10/22 17:05:17;;;;;;;1.10;0.67;;;;;;;;;;6213135;28;20397;-83
2023/10/22 17:08:17;;;;;;;1.00;0.53;;;;;;;;;;6154425;28;20058;-82
2023/10/22 17:11:18;;;;;;;0.97;0.53;;;;;;;;;;6204720;28;20029;-82
2023/10/22 17:14:18;;;;;;;1.50;0.67;;;;;;;;;;6199931;28;20072;-82
2023/10/22 17:17:18;;;;;;;1.35;0.75;;;;;;;;;;6200473;28;20022;-82
2023/10/22 17:20:18;;;;;;;2.37;1.00;;;;;;;;;;6207390;28;20026;-82
2023/10/22 17:23:19;;;;;;;1.33;0.90;;;;;;;;;;6192312;28;20105;-82
2023/10/22 17:26:19;;;;;;;1.45;0.90;;;;;;;;;;6221069;28;20014;-82
2023/10/22 17:29:20;;;;;;;1.60;1.20;;;;;;;;;;6194959;28;20466;-82
2023/10/22 17:32:20;;;;;;;2.72;1.30;;;;;;;;;;6172976;28;20578;-82
2023/10/22 17:35:21;;;;;;;1.10;0.95;;;;;;;;;;6197106;28;20436;-82
2023/10/22 17:38:21;;;;;;;1.60;0.90;;;;;;;;;;6192450;28;20042;-82
2023/10/22 17:41:21;;;;;;;2.60;1.55;;;;;;;;;;6186500;28;20030;-82
2023/10/22 17:44:21;;;;;;;1.77;1.40;;;;;;;;;;6184771;28;20038;-82
2023/10/22 17:47:22;;;;;;;1.63;1.10;;;;;;;;;;6174724;28;20043;-81
2023/10/22 17:50:22;;;;;;;1.50;0.90;;;;;;;;;;6175651;28;20492;-81
2023/10/22 17:53:22;;;;;;;1.57;1.10;;;;;;;;;;6184389;28;20034;-81
2023/10/22 17:56:24;;;;;;;1.47;0.93;;;;;;;;;;6178001;28;20459;-80
2023/10/22 17:59:24;;;;;;;2.00;1.05;;;;;;;;;;6186613;28;20356;-81
2023/10/22 18:02:24;;;;;;;1.10;1.00;;;;;;;;;;6177647;28;20118;-80
2023/10/22 18:05:24;;;;;;;1.90;1.40;;;;;;;;;;6180128;28;20506;-80
2023/10/22 18:08:25;;;;;;;2.83;1.47;;;;;;;;;;6191126;28;20099;-80
2023/10/22 18:11:26;;;;;;;2.43;1.13;;;;;;;;;;6177288;28;20044;-80
2023/10/22 18:14:26;;;;;;;1.42;1.15;;;;;;;;;;6179371;28;20034;-80
2023/10/22 18:17:26;;;;;;;1.17;1.00;;;;;;;;;;6174143;28;20038;-81
2023/10/22 18:20:26;;;;;;;1.73;1.00;;;;;;;;;;6180520;28;20030;-81
2023/10/22 18:23:27;;;;;;;1.80;1.03;;;;;;;;;;6182437;28;20033;-79
2023/10/22 18:26:29;;;;;;;1.40;1.10;;;;;;;;;;6183486;28;20061;-77
2023/10/22 18:29:29;;;;;;;1.67;1.10;;;;;;;;;;6189457;28;20019;-77